createdAt,value
2022-11-05T00:00:31.983Z,52.00
2022-11-05T00:03:19.164Z,52.08
2022-11-05T00:06:07.273Z,51.91
2022-11-05T00:08:53.556Z,51.93
2022-11-05T00:11:42.377Z,52.00
2022-11-05T00:14:28.308Z,52.03
2022-11-05T00:16:56.734Z,51.89
2022-11-05T00:19:26.368Z,51.57
2022-11-05T00:22:12.384Z,51.51
2022-11-05T00:24:58.251Z,51.28
2022-11-05T00:27:26.547Z,51.60
2022-11-05T00:29:54.805Z,51.01
2022-11-05T00:32:24.459Z,51.29
2022-11-05T00:34:55.185Z,51.34
2022-11-05T00:37:23.558Z,51.87
2022-11-05T00:39:51.780Z,51.45
2022-11-05T00:42:37.704Z,51.56
2022-11-05T00:45:07.664Z,52.33
2022-11-05T00:47:53.894Z,52.35
2022-11-05T00:50:25.702Z,52.23
2022-11-05T00:53:13.007Z,53.00
2022-11-05T00:55:55.389Z,53.20
2022-11-05T00:58:48.425Z,52.99
2022-11-05T01:01:36.686Z,52.86
2022-11-05T01:04:11.045Z,52.82
2022-11-05T01:06:43.143Z,52.73
2022-11-05T01:09:11.533Z,52.82
2022-11-05T01:11:43.284Z,53.07
2022-11-05T01:14:16.037Z,53.29
2022-11-05T01:16:45.470Z,53.00
2022-11-05T01:19:15.245Z,53.03
2022-11-05T01:21:44.985Z,53.00
2022-11-05T01:24:20.244Z,53.18
2022-11-05T01:27:04.819Z,52.50
2022-11-05T01:29:53.490Z,52.32
2022-11-05T01:32:30.207Z,52.53
2022-11-05T01:35:09.154Z,53.33
2022-11-05T01:37:54.914Z,52.85
2022-11-05T01:40:44.950Z,52.31
2022-11-05T01:43:17.135Z,52.89
2022-11-05T01:45:48.625Z,52.70
2022-11-05T01:48:19.560Z,52.80
2022-11-05T01:50:59.653Z,52.22
2022-11-05T01:53:34.821Z,52.45
2022-11-05T01:56:07.095Z,52.33
2022-11-05T01:58:39.438Z,52.39
2022-11-05T02:01:08.002Z,52.81
2022-11-05T02:03:37.138Z,53.20
2022-11-05T02:06:09.412Z,53.32
2022-11-05T02:08:55.392Z,53.40
2022-11-05T02:11:24.106Z,53.56
2022-11-05T02:13:52.765Z,53.50
2022-11-05T02:16:35.630Z,53.46
2022-11-05T02:19:15.216Z,53.03
2022-11-05T02:22:20.512Z,53.53
2022-11-05T02:25:15.764Z,53.74
2022-11-05T02:28:18.443Z,53.76
2022-11-05T02:30:55.315Z,53.18
2022-11-05T02:33:33.814Z,53.25
2022-11-05T02:36:15.748Z,53.14
2022-11-05T02:38:53.689Z,53.52
2022-11-05T02:41:31.648Z,54.24
2022-11-05T02:44:10.084Z,54.38
2022-11-05T02:46:48.457Z,53.99
2022-11-05T02:49:29.196Z,53.99
2022-11-05T02:52:00.098Z,53.94
2022-11-05T02:54:34.562Z,53.30
2022-11-05T02:57:05.080Z,53.26
2022-11-05T02:59:33.421Z,53.48
2022-11-05T03:02:05.306Z,53.91
2022-11-05T03:04:34.056Z,54.42
2022-11-05T03:07:25.109Z,54.24
2022-11-05T03:10:28.196Z,54.18
2022-11-05T03:13:11.223Z,53.96
2022-11-05T03:15:51.032Z,53.58
2022-11-05T03:18:26.999Z,53.56
2022-11-05T03:21:03.734Z,53.20
2022-11-05T03:23:37.153Z,53.21
2022-11-05T03:26:11.778Z,53.48
2022-11-05T03:28:44.391Z,53.68
2022-11-05T03:31:15.726Z,53.22
2022-11-05T03:33:47.771Z,53.47
2022-11-05T03:36:21.597Z,53.70
2022-11-05T03:38:54.717Z,54.32
2022-11-05T03:41:25.320Z,54.51
2022-11-05T03:44:03.317Z,53.65
2022-11-05T03:46:36.247Z,53.96
2022-11-05T03:49:09.901Z,53.93
2022-11-05T03:51:45.077Z,53.53
2022-11-05T03:54:14.769Z,54.09
2022-11-05T03:56:50.289Z,54.32
2022-11-05T03:59:19.333Z,54.11
2022-11-05T04:01:49.188Z,54.00
2022-11-05T04:04:19.086Z,53.76
2022-11-05T04:07:04.896Z,53.72
2022-11-05T04:09:50.988Z,53.61
2022-11-05T04:12:37.023Z,54.16
2022-11-05T04:15:05.717Z,54.36
2022-11-05T04:17:32.948Z,54.34
2022-11-05T04:20:20.080Z,54.20
2022-11-05T04:23:05.939Z,54.57
2022-11-05T04:25:34.446Z,54.86
2022-11-05T04:28:02.710Z,55.03
2022-11-05T04:30:30.005Z,55.47
2022-11-05T04:33:04.352Z,55.83
2022-11-05T04:35:36.920Z,55.91
2022-11-05T04:38:05.876Z,55.81
2022-11-05T04:40:34.462Z,55.53
2022-11-05T04:43:02.968Z,55.40
2022-11-05T04:45:34.405Z,55.17
2022-11-05T04:48:03.114Z,55.43
2022-11-05T04:50:33.613Z,55.43
2022-11-05T04:53:02.118Z,55.26
2022-11-05T04:55:30.477Z,55.37
2022-11-05T04:57:58.812Z,55.16
2022-11-05T05:00:27.099Z,55.21
2022-11-05T05:02:55.633Z,54.96
2022-11-05T05:05:23.870Z,55.16
2022-11-05T05:07:53.572Z,55.19
2022-11-05T05:10:21.802Z,55.42
2022-11-05T05:12:50.128Z,55.16
2022-11-05T05:15:18.429Z,54.90
2022-11-05T05:17:52.413Z,55.09
2022-11-05T05:20:38.371Z,54.96
2022-11-05T05:23:08.276Z,55.08
2022-11-05T05:25:36.853Z,54.78
2022-11-05T05:28:05.248Z,54.83
2022-11-05T05:30:33.499Z,54.88
2022-11-05T05:33:04.437Z,55.22
2022-11-05T05:35:32.747Z,55.32
2022-11-05T05:38:01.057Z,54.51
2022-11-05T05:40:30.758Z,54.46
2022-11-05T05:42:59.061Z,54.50
2022-11-05T05:45:27.308Z,54.09
2022-11-05T05:47:56.908Z,54.10
2022-11-05T05:50:25.248Z,53.51
2022-11-05T05:52:53.865Z,53.58
2022-11-05T05:55:22.224Z,53.70
2022-11-05T05:57:52.141Z,53.89
2022-11-05T06:00:20.355Z,53.87
2022-11-05T06:02:48.719Z,53.82
2022-11-05T06:05:17.386Z,54.04
2022-11-05T06:07:45.692Z,54.13
2022-11-05T06:10:14.002Z,53.96
2022-11-05T06:12:43.649Z,53.52
2022-11-05T06:15:13.448Z,54.53
2022-11-05T06:17:41.763Z,53.78
2022-11-05T06:20:11.721Z,53.58
2022-11-05T06:22:40.527Z,53.56
2022-11-05T06:25:09.916Z,53.78
2022-11-05T06:27:38.261Z,53.07
2022-11-05T06:30:07.480Z,53.55
2022-11-05T06:32:37.248Z,53.27
2022-11-05T06:35:06.043Z,53.59
2022-11-05T06:37:34.663Z,53.06
2022-11-05T06:40:02.926Z,53.54
2022-11-05T06:42:32.445Z,53.27
2022-11-05T06:45:00.728Z,53.14
2022-11-05T06:47:29.122Z,53.61
2022-11-05T06:49:58.730Z,53.18
2022-11-05T06:52:31.292Z,53.62
2022-11-05T06:54:59.702Z,53.70
2022-11-05T06:57:28.970Z,53.81
2022-11-05T07:00:01.330Z,53.78
2022-11-05T07:02:31.670Z,53.22
2022-11-05T07:05:01.273Z,52.99
2022-11-05T07:07:29.672Z,52.78
2022-11-05T07:09:57.961Z,52.83
2022-11-05T07:12:26.254Z,52.85
2022-11-05T07:14:54.509Z,52.47
2022-11-05T07:17:23.681Z,52.38
2022-11-05T07:19:51.966Z,51.90
2022-11-05T07:22:21.947Z,50.80
2022-11-05T07:24:50.523Z,50.33
2022-11-05T07:27:19.097Z,50.25
2022-11-05T07:29:47.436Z,50.20
2022-11-05T07:32:15.705Z,48.87
2022-11-05T07:34:44.987Z,48.33
2022-11-05T07:37:16.635Z,46.44
2022-11-05T07:39:46.408Z,46.89
2022-11-05T07:42:15.135Z,45.38
2022-11-05T07:44:43.427Z,45.81
2022-11-05T07:47:11.826Z,44.93
2022-11-05T07:49:40.244Z,44.68
2022-11-05T07:52:08.493Z,43.68
2022-11-05T07:54:36.814Z,44.00
2022-11-05T07:57:07.478Z,43.57
2022-11-05T07:59:35.825Z,43.46
2022-11-05T08:02:04.208Z,42.63
2022-11-05T08:04:32.697Z,42.80
2022-11-05T08:07:00.871Z,42.84
2022-11-05T08:09:29.112Z,42.33
2022-11-05T08:12:02.614Z,43.19
2022-11-05T08:14:32.928Z,40.92
2022-11-05T08:17:01.199Z,41.68
2022-11-05T08:19:29.512Z,42.25
2022-11-05T08:21:57.854Z,42.56
2022-11-05T08:24:26.181Z,42.54
2022-11-05T08:26:54.652Z,41.82
2022-11-05T08:29:23.201Z,42.45
2022-11-05T08:31:52.839Z,42.86
2022-11-05T08:34:22.121Z,42.36
2022-11-05T08:36:50.350Z,41.88
2022-11-05T08:39:20.032Z,41.75
2022-11-05T08:41:48.487Z,41.43
2022-11-05T08:44:16.746Z,41.02
2022-11-05T08:46:45.121Z,41.40
2022-11-05T08:49:14.875Z,41.66
2022-11-05T08:51:44.984Z,41.85
2022-11-05T08:54:13.469Z,42.00
2022-11-05T08:56:41.679Z,41.62
2022-11-05T08:59:10.170Z,41.77
2022-11-05T09:01:38.618Z,41.16
2022-11-05T09:04:07.094Z,40.61
2022-11-05T09:06:36.769Z,41.20
2022-11-05T09:09:05.343Z,41.59
2022-11-05T09:11:57.427Z,41.66
2022-11-05T09:14:22.105Z,41.80
2022-11-05T09:16:50.369Z,41.08
2022-11-05T09:19:18.644Z,40.66
2022-11-05T09:21:48.361Z,41.65
2022-11-05T09:24:16.661Z,40.55
2022-11-05T09:26:44.922Z,39.79
2022-11-05T09:29:14.482Z,39.88
2022-11-05T09:31:43.336Z,40.59
2022-11-05T09:34:11.622Z,39.04
2022-11-05T09:36:39.976Z,39.87
2022-11-05T09:39:09.807Z,39.46
2022-11-05T09:41:41.082Z,39.11
2022-11-05T09:44:15.097Z,38.46
2022-11-05T09:46:46.788Z,38.36
2022-11-05T09:49:25.748Z,38.86
2022-11-05T09:51:55.462Z,39.41
2022-11-05T09:54:27.483Z,38.07
2022-11-05T09:56:57.095Z,38.28
2022-11-05T09:59:30.848Z,38.82
2022-11-05T10:02:04.525Z,39.49
2022-11-05T10:04:35.480Z,39.49
2022-11-05T10:07:07.508Z,37.24
2022-11-05T10:09:46.496Z,37.46
2022-11-05T10:12:21.841Z,37.33
2022-11-05T10:14:54.943Z,38.39
2022-11-05T10:17:27.572Z,38.71
2022-11-05T10:20:03.938Z,37.81
2022-11-05T10:22:32.294Z,37.73
2022-11-05T10:25:01.992Z,37.60
2022-11-05T10:27:33.837Z,37.73
2022-11-05T10:30:02.420Z,37.56
2022-11-05T10:32:34.248Z,38.50
2022-11-05T10:35:05.319Z,38.97
2022-11-05T10:37:39.589Z,38.32
2022-11-05T10:40:34.201Z,37.86
2022-11-05T10:43:06.948Z,37.90
2022-11-05T10:45:46.742Z,38.38
2022-11-05T10:48:44.096Z,36.93
2022-11-05T10:51:13.332Z,35.77
2022-11-05T10:53:51.175Z,37.31
2022-11-05T10:56:38.684Z,36.92
2022-11-05T10:59:20.401Z,36.40
2022-11-05T11:01:48.915Z,36.35
2022-11-05T11:04:24.974Z,36.40
2022-11-05T11:06:55.460Z,38.11
2022-11-05T11:09:26.991Z,38.20
2022-11-05T11:12:03.146Z,37.13
2022-11-05T11:14:31.516Z,36.80
2022-11-05T11:17:19.221Z,37.10
2022-11-05T11:19:47.593Z,37.24
2022-11-05T11:22:21.103Z,37.55
2022-11-05T11:24:52.036Z,37.42
2022-11-05T11:27:24.595Z,36.96
2022-11-05T11:29:59.018Z,35.69
2022-11-05T11:32:33.257Z,35.77
2022-11-05T11:35:01.983Z,35.85
2022-11-05T11:37:35.930Z,35.43
2022-11-05T11:40:14.810Z,36.68
2022-11-05T11:42:48.875Z,35.70
2022-11-05T11:45:19.948Z,35.76
2022-11-05T11:47:50.770Z,35.48
2022-11-05T11:50:36.395Z,35.53
2022-11-05T11:53:36.278Z,37.00
2022-11-05T11:56:13.807Z,35.83
2022-11-05T11:58:46.623Z,36.02
2022-11-05T12:01:47.125Z,36.24
2022-11-05T12:04:26.674Z,36.66
2022-11-05T12:07:06.371Z,36.38
2022-11-05T12:09:50.111Z,35.50
2022-11-05T12:12:24.773Z,35.02
2022-11-05T12:14:59.642Z,35.04
2022-11-05T12:17:44.277Z,35.43
2022-11-05T12:20:31.229Z,35.73
2022-11-05T12:23:19.107Z,36.18
2022-11-05T12:25:53.169Z,35.59
2022-11-05T12:29:12.236Z,35.64
2022-11-05T12:31:45.783Z,36.65
2022-11-05T12:34:32.811Z,35.98
2022-11-05T12:37:15.868Z,35.32
2022-11-05T12:39:50.209Z,35.93
2022-11-05T12:42:32.985Z,35.56
2022-11-05T12:45:04.620Z,35.38
2022-11-05T12:47:50.758Z,35.54
2022-11-05T12:50:27.150Z,36.11
2022-11-05T12:53:18.447Z,34.82
2022-11-05T12:55:49.636Z,34.59
2022-11-05T12:58:23.976Z,34.80
2022-11-05T13:00:58.929Z,34.13
2022-11-05T13:03:40.327Z,33.86
2022-11-05T13:06:13.309Z,33.76
2022-11-05T13:08:49.182Z,34.84
2022-11-05T13:11:22.732Z,34.49
2022-11-05T13:14:03.666Z,34.02
2022-11-05T13:16:36.901Z,34.91
2022-11-05T13:19:15.029Z,34.49
2022-11-05T13:21:45.120Z,34.61
2022-11-05T13:24:19.267Z,35.04
2022-11-05T13:26:53.907Z,34.94
2022-11-05T13:29:27.748Z,35.02
2022-11-05T13:32:12.273Z,34.04
2022-11-05T13:34:42.252Z,33.82
2022-11-05T13:37:31.488Z,34.57
2022-11-05T13:40:04.812Z,35.43
2022-11-05T13:43:01.424Z,35.08
2022-11-05T13:46:08.007Z,34.47
2022-11-05T13:49:17.481Z,34.80
2022-11-05T13:51:54.666Z,34.90
2022-11-05T13:55:10.533Z,33.95
2022-11-05T13:58:03.604Z,33.53
2022-11-05T14:00:37.736Z,33.97
2022-11-05T14:03:15.587Z,34.64
2022-11-05T14:05:45.316Z,33.93
2022-11-05T14:08:21.373Z,34.03
2022-11-05T14:11:00.975Z,34.45
2022-11-05T14:13:34.829Z,34.72
2022-11-05T14:16:07.769Z,34.75
2022-11-05T14:18:42.895Z,34.92
2022-11-05T14:21:48.380Z,34.36
2022-11-05T14:24:28.144Z,34.31
2022-11-05T14:27:34.032Z,34.51
2022-11-05T14:30:02.412Z,34.63
2022-11-05T14:32:45.228Z,35.19
2022-11-05T14:35:37.070Z,34.90
2022-11-05T14:38:06.736Z,34.61
2022-11-05T14:40:38.956Z,35.29
2022-11-05T14:43:17.837Z,34.91
2022-11-05T14:45:56.089Z,36.16
2022-11-05T14:48:32.297Z,37.02
2022-11-05T14:51:01.050Z,36.34
2022-11-05T14:53:37.492Z,37.05
2022-11-05T14:56:10.966Z,37.13
2022-11-05T14:58:40.694Z,36.53
2022-11-05T15:01:10.451Z,35.83
2022-11-05T15:04:02.264Z,36.28
2022-11-05T15:06:33.496Z,36.33
2022-11-05T15:09:27.973Z,36.36
2022-11-05T15:12:17.796Z,36.17
2022-11-05T15:14:55.973Z,35.23
2022-11-05T15:17:30.059Z,35.40
2022-11-05T15:20:09.194Z,35.27
2022-11-05T15:22:40.813Z,35.52
2022-11-05T15:25:19.188Z,35.70
2022-11-05T15:27:58.805Z,36.09
2022-11-05T15:30:27.804Z,36.60
2022-11-05T15:32:56.081Z,36.70
2022-11-05T15:35:28.005Z,36.24
2022-11-05T15:38:01.995Z,36.71
2022-11-05T15:40:33.415Z,36.75
2022-11-05T15:43:20.788Z,36.87
2022-11-05T15:46:07.644Z,36.69
2022-11-05T15:48:37.135Z,37.13
2022-11-05T15:51:05.635Z,36.69
2022-11-05T15:54:23.755Z,37.02
2022-11-05T15:56:50.345Z,37.62
2022-11-05T15:59:21.667Z,36.60
2022-11-05T16:01:52.494Z,36.27
2022-11-05T16:04:24.521Z,37.15
2022-11-05T16:06:55.145Z,37.48
2022-11-05T16:09:25.930Z,37.93
2022-11-05T16:12:14.049Z,38.61
2022-11-05T16:14:43.999Z,39.41
2022-11-05T16:17:20.337Z,40.00
2022-11-05T16:19:49.860Z,39.97
2022-11-05T16:22:18.615Z,40.27
2022-11-05T16:24:47.765Z,41.10
2022-11-05T16:27:19.809Z,41.44
2022-11-05T16:29:55.559Z,41.78
2022-11-05T16:32:30.674Z,42.68
2022-11-05T16:35:02.083Z,43.62
2022-11-05T16:37:36.739Z,43.94
2022-11-05T16:40:14.377Z,44.31
2022-11-05T16:42:43.473Z,43.87
2022-11-05T16:45:14.932Z,44.02
2022-11-05T16:47:44.738Z,44.77
2022-11-05T16:50:25.450Z,44.78
2022-11-05T16:52:54.194Z,44.72
2022-11-05T16:55:22.620Z,44.58
2022-11-05T16:57:53.583Z,44.91
2022-11-05T17:00:24.266Z,44.55
2022-11-05T17:02:53.180Z,44.63
2022-11-05T17:05:24.367Z,44.94
2022-11-05T17:07:53.369Z,44.97
2022-11-05T17:10:22.483Z,44.61
2022-11-05T17:12:53.128Z,45.00
2022-11-05T17:15:25.862Z,44.38
2022-11-05T17:17:55.703Z,45.10
2022-11-05T17:20:35.143Z,44.90
2022-11-05T17:23:07.396Z,45.10
2022-11-05T17:25:36.186Z,44.45
2022-11-05T17:28:05.673Z,44.37
2022-11-05T17:30:35.870Z,44.17
2022-11-05T17:33:04.347Z,44.49
2022-11-05T17:35:33.322Z,44.67
2022-11-05T17:38:01.625Z,44.56
2022-11-05T17:40:30.460Z,44.94
2022-11-05T17:42:58.813Z,44.63
2022-11-05T17:45:27.018Z,44.62
2022-11-05T17:47:56.744Z,44.70
2022-11-05T17:50:25.044Z,44.93
2022-11-05T17:52:53.338Z,45.10
2022-11-05T17:55:21.624Z,44.81
2022-11-05T17:57:51.630Z,45.19
2022-11-05T18:00:22.711Z,44.42
2022-11-05T18:02:53.010Z,44.38
2022-11-05T18:05:24.242Z,44.94
2022-11-05T18:07:52.810Z,44.89
2022-11-05T18:10:21.072Z,45.24
2022-11-05T18:12:49.435Z,45.63
2022-11-05T18:15:18.535Z,45.83
2022-11-05T18:17:47.363Z,45.75
2022-11-05T18:20:19.204Z,45.79
2022-11-05T18:22:50.784Z,46.28
2022-11-05T18:25:19.487Z,46.79
2022-11-05T18:27:47.733Z,46.58
2022-11-05T18:30:17.091Z,46.75
2022-11-05T18:32:45.667Z,47.50
2022-11-05T18:35:14.692Z,48.10
2022-11-05T18:37:43.474Z,48.57
2022-11-05T18:40:14.347Z,48.92
2022-11-05T18:42:42.677Z,49.45
2022-11-05T18:45:12.674Z,50.04
2022-11-05T18:47:41.189Z,50.71
2022-11-05T18:50:10.597Z,50.67
2022-11-05T18:52:39.001Z,51.25
2022-11-05T18:55:08.536Z,51.47
2022-11-05T18:57:39.313Z,51.33
2022-11-05T19:00:08.640Z,50.99
2022-11-05T19:02:37.003Z,51.02
2022-11-05T19:07:54.056Z,52.26
2022-11-05T19:10:22.344Z,52.57
2022-11-05T19:12:52.149Z,53.08
2022-11-05T19:15:20.676Z,53.58
2022-11-05T19:17:48.992Z,53.81
2022-11-05T19:20:17.823Z,53.67
2022-11-05T19:22:46.124Z,53.64
2022-11-05T19:25:14.388Z,53.13
2022-11-05T19:27:43.770Z,52.61
2022-11-05T19:30:13.854Z,51.88
2022-11-05T19:32:42.079Z,51.72
2022-11-05T19:35:10.755Z,51.94
2022-11-05T19:37:39.055Z,52.18
2022-11-05T19:40:08.924Z,52.17
2022-11-05T19:42:37.222Z,52.67
2022-11-05T19:45:23.457Z,52.73
2022-11-05T19:47:55.758Z,53.11
2022-11-05T19:50:24.031Z,53.01
2022-11-05T19:52:52.320Z,53.09
2022-11-05T19:55:20.596Z,53.24
2022-11-05T19:57:48.962Z,54.11
2022-11-05T20:00:17.773Z,54.13
2022-11-05T20:02:46.586Z,53.57
2022-11-05T20:05:18.366Z,53.13
2022-11-05T20:07:52.308Z,53.19
2022-11-05T20:10:21.277Z,53.80
2022-11-05T20:12:49.553Z,53.77
2022-11-05T20:15:19.811Z,53.88
2022-11-05T20:17:52.222Z,54.09
2022-11-05T20:20:22.310Z,53.91
2022-11-05T20:22:52.891Z,54.22
2022-11-05T20:25:21.158Z,54.63
2022-11-05T20:27:49.412Z,54.28
2022-11-05T20:30:18.778Z,54.63
2022-11-05T20:32:47.184Z,55.09
2022-11-05T20:35:16.476Z,54.84
2022-11-05T20:37:54.089Z,54.85
2022-11-05T20:40:23.242Z,54.94
2022-11-05T20:42:51.743Z,54.53
2022-11-05T20:45:21.112Z,55.09
2022-11-05T20:47:50.545Z,55.82
2022-11-05T20:50:19.410Z,55.76
2022-11-05T20:52:50.088Z,55.84
2022-11-05T20:55:19.178Z,56.17
2022-11-05T20:57:47.526Z,56.48
2022-11-05T21:00:17.067Z,56.55
2022-11-05T21:02:46.495Z,56.84
2022-11-05T21:05:14.999Z,57.24
2022-11-05T21:07:44.480Z,58.05
2022-11-05T21:10:14.288Z,57.69
2022-11-05T21:12:42.906Z,57.36
2022-11-05T21:15:12.769Z,57.84
2022-11-05T21:17:41.488Z,56.88
2022-11-05T21:20:10.702Z,56.99
2022-11-05T21:22:39.152Z,57.80
2022-11-05T21:25:08.871Z,57.66
2022-11-05T21:27:42.576Z,58.59
2022-11-05T21:30:13.982Z,57.83
2022-11-05T21:32:42.755Z,57.26
2022-11-05T21:35:11.633Z,57.46
2022-11-05T21:37:41.257Z,57.23
2022-11-05T21:40:12.776Z,56.62
2022-11-05T21:42:42.834Z,57.06
2022-11-05T21:45:12.152Z,56.73
2022-11-05T21:47:40.436Z,56.44
2022-11-05T21:50:09.858Z,56.53
2022-11-05T21:53:10.199Z,56.77
2022-11-05T21:55:59.665Z,56.49
2022-11-05T21:58:46.803Z,56.76
2022-11-05T22:01:15.183Z,57.52
2022-11-05T22:03:43.637Z,57.13
2022-11-05T22:06:12.220Z,58.17
2022-11-05T22:08:40.645Z,58.25
2022-11-05T22:11:08.987Z,58.12
2022-11-05T22:13:38.754Z,58.32
2022-11-05T22:16:08.771Z,58.96
2022-11-05T22:18:37.114Z,58.79
2022-11-05T22:21:05.631Z,58.54
2022-11-05T22:23:34.023Z,59.21
2022-11-05T22:26:03.645Z,58.65
2022-11-05T22:28:31.963Z,59.10
2022-11-05T22:31:01.753Z,58.84
2022-11-05T22:33:30.117Z,60.08
2022-11-05T22:35:58.424Z,60.29
2022-11-05T22:38:26.733Z,60.68
2022-11-05T22:40:55.249Z,61.12
2022-11-05T22:43:23.654Z,61.07
2022-11-05T22:45:53.641Z,60.24
2022-11-05T22:48:23.677Z,61.03
2022-11-05T22:50:52.411Z,62.00
2022-11-05T22:53:21.004Z,61.56
2022-11-05T22:55:49.357Z,61.57
2022-11-05T22:58:18.828Z,61.84
2022-11-05T23:00:47.193Z,62.31
2022-11-05T23:03:15.624Z,62.58
2022-11-05T23:05:45.493Z,62.43
2022-11-05T23:08:31.345Z,62.54
2022-11-05T23:11:17.369Z,62.63
2022-11-05T23:13:46.128Z,63.30
2022-11-05T23:16:31.845Z,63.69
2022-11-05T23:19:17.747Z,63.52
2022-11-05T23:22:04.790Z,63.32
2022-11-05T23:24:33.288Z,63.90
2022-11-05T23:27:01.799Z,63.51
2022-11-05T23:29:33.753Z,63.73
2022-11-05T23:32:19.449Z,64.13
2022-11-05T23:34:48.804Z,63.78
2022-11-05T23:37:39.041Z,64.03
2022-11-05T23:40:10.481Z,63.11
2022-11-05T23:42:56.555Z,63.20
2022-11-05T23:45:50.923Z,62.84
2022-11-05T23:48:24.540Z,62.99
2022-11-05T23:50:57.770Z,63.41
2022-11-05T23:53:28.074Z,63.51
2022-11-05T23:56:01.460Z,63.45
2022-11-05T23:58:30.423Z,63.56
